Time;durP1;ratioP1;P1;durP2;ratioP2;P2;SDS_P1;SDS_P2;PMS_P1;PMS_P2;Temp;Humidity;BMP_temperature;BMP_pressure;BME280_temperature;BME280_humidity;BME280_pressure;Samples;Min_cycle;Max_cycle;Signal;HPM_P1;HPM_P2
2022/01/18 00:01:55;;;;;;;19.92;10.43;;;;;;;28.59;53.78;101196.50;5078688;27;65449;-38
2022/01/18 00:04:29;;;;;;;32.08;13.02;;;;;;;28.68;54.12;101211.50;5080307;27;70830;-38
2022/01/18 00:06:59;;;;;;;42.08;15.18;;;;;;;28.72;55.36;101212.78;5065242;27;66568;-39
2022/01/18 00:09:30;;;;;;;34.65;17.45;;;;;;;28.74;56.52;101218.81;5081333;27;70124;-38
2022/01/18 00:12:26;;;;;;;45.85;19.88;;;;;;;28.69;57.21;101218.56;5079719;27;67126;-38
2022/01/18 00:15:15;;;;;;;49.45;20.13;;;;;;;28.47;57.72;101191.66;5089155;27;69550;-37
2022/01/18 00:17:51;;;;;;;55.47;20.23;;;;;;;28.56;58.42;101221.19;5083318;27;65572;-37
2022/01/18 00:20:37;;;;;;;48.00;22.05;;;;;;;28.52;58.72;101224.25;5087539;27;69099;-37
2022/01/18 00:23:09;;;;;;;41.33;20.45;;;;;;;28.38;58.93;101214.38;5084839;27;66703;-38
2022/01/18 00:25:42;;;;;;;54.22;20.48;;;;;;;28.43;59.40;101235.41;5080673;27;69038;-37
2022/01/18 00:28:14;;;;;;;49.90;20.45;;;;;;;28.50;59.25;101234.44;5078614;27;65486;-38
2022/01/18 00:31:11;;;;;;;50.93;21.33;;;;;;;28.56;59.69;101240.91;5080226;27;69891;-37
2022/01/18 00:33:54;;;;;;;42.90;18.83;;;;;;;28.61;59.74;101240.31;5077891;27;66210;-37
2022/01/18 00:39:12;;;;;;;54.25;20.42;;;;;;;28.77;59.37;101258.09;5078075;27;65541;-38
2022/01/18 00:41:43;;;;;;;58.13;20.88;;;;;;;28.83;60.10;101268.91;5077552;27;69407;-36
2022/01/18 00:44:14;;;;;;;58.53;20.67;;;;;;;28.89;59.75;101270.00;5079901;27;65776;-36
2022/01/18 00:46:45;;;;;;;44.70;21.48;;;;;;;28.91;59.61;101266.06;5079138;27;70167;-36
2022/01/18 00:49:16;;;;;;;63.35;23.00;;;;;;;28.84;59.72;101254.41;5083631;27;65726;-37
2022/01/18 00:51:53;;;;;;;54.85;23.08;;;;;;;28.99;59.66;101277.75;5083190;27;70575;-37
2022/01/18 00:54:32;;;;;;;60.80;23.35;;;;;;;29.02;59.60;101283.59;5086085;27;65504;-37
2022/01/18 00:57:03;;;;;;;49.67;22.20;;;;;;;29.02;59.44;101288.16;5082486;27;70349;-38
2022/01/18 00:59:34;;;;;;;48.53;22.63;;;;;;;29.06;59.74;101292.16;5080651;27;65492;-37
2022/01/18 01:02:04;;;;;;;56.30;23.50;;;;;;;29.10;59.32;101306.94;5079517;27;69428;-38
2022/01/18 01:04:40;;;;;;;56.60;24.45;;;;;;;29.11;59.68;101309.47;5078187;27;66349;-37
2022/01/18 01:07:10;;;;;;;46.53;23.17;;;;;;;29.12;59.80;101310.28;5084421;27;69570;-37
2022/01/18 01:09:41;;;;;;;43.20;22.52;;;;;;;29.12;59.62;101299.50;5086382;27;66441;-37
2022/01/18 01:12:12;;;;;;;45.45;22.95;;;;;;;29.17;59.86;101307.84;5083634;27;70241;-36
2022/01/18 01:14:43;;;;;;;44.37;22.70;;;;;;;29.18;59.68;101304.09;5086718;27;65415;-36
2022/01/18 01:17:32;;;;;;;51.33;22.67;;;;;;;29.05;60.53;101287.81;5082415;27;71201;-36
2022/01/18 01:34:34;;;;;;;50.53;30.85;;;;;;;29.32;61.17;101316.63;5072900;27;69574;-36
2022/01/18 01:45:37;;;;;;;30.87;21.43;;;;;;;29.39;60.24;101328.34;5072429;27;69983;-36
2022/01/18 01:48:08;;;;;;;30.63;20.47;;;;;;;29.38;60.84;101313.13;5076414;27;66130;-36
2022/01/18 01:53:18;;;;;;;39.55;23.60;;;;;;;29.42;60.35;101315.44;5079772;27;66137;-36
2022/01/18 01:55:49;;;;;;;27.67;20.83;;;;;;;29.47;59.65;101319.22;5079673;27;70447;-36
2022/01/18 01:58:21;;;;;;;33.95;22.40;;;;;;;29.48;59.31;101311.97;5081319;27;66728;-35
2022/01/18 02:00:55;;;;;;;36.20;23.92;;;;;;;29.51;59.39;101309.69;5079822;27;70228;-36
2022/01/18 02:03:25;;;;;;;36.33;24.20;;;;;;;29.52;59.39;101307.81;5074894;27;66337;-35
2022/01/18 02:05:56;;;;;;;36.88;24.35;;;;;;;29.55;59.14;101307.41;5081199;27;69541;-35
2022/01/18 02:08:26;;;;;;;47.33;29.23;;;;;;;29.56;58.97;101306.34;5084602;27;66598;-36
2022/01/18 02:10:56;;;;;;;47.47;28.85;;;;;;;29.58;58.32;101313.22;5081418;27;69518;-36
2022/01/18 02:13:27;;;;;;;43.22;27.38;;;;;;;29.58;58.56;101309.69;5081146;27;66538;-35
2022/01/18 02:24:15;;;;;;;31.08;21.60;;;;;;;29.65;58.40;101310.59;5075330;27;65517;-39
2022/01/18 02:26:46;;;;;;;33.77;23.33;;;;;;;29.64;58.26;101308.91;5082363;27;68900;-35
2022/01/18 02:29:17;;;;;;;27.90;21.35;;;;;;;29.67;58.20;101303.13;5079264;27;65363;-35
2022/01/18 02:31:47;;;;;;;30.38;22.08;;;;;;;29.65;57.69;101297.09;5079289;27;69467;-35
2022/01/18 02:34:20;;;;;;;32.65;21.92;;;;;;;29.72;58.14;101306.03;5079870;27;66203;-36
2022/01/18 02:36:53;;;;;;;30.52;21.25;;;;;;;29.74;58.10;101305.84;5079618;27;69718;-36
2022/01/18 02:39:26;;;;;;;32.03;22.23;;;;;;;29.75;57.59;101305.63;5060196;28;66287;-36
2022/01/18 02:42:07;;;;;;;26.60;20.67;;;;;;;29.49;58.10;101267.66;5078689;27;70743;-36
2022/01/18 02:44:38;;;;;;;29.10;21.73;;;;;;;29.75;57.53;101300.22;5080344;27;65300;-36
2022/01/18 02:47:08;;;;;;;25.30;19.80;;;;;;;29.77;57.85;101292.75;5078341;27;69573;-36
2022/01/18 02:49:38;;;;;;;30.73;20.58;;;;;;;29.80;57.77;101295.03;5079698;27;66006;-36
2022/01/18 02:52:08;;;;;;;29.00;20.50;;;;;;;29.79;57.23;101279.88;5070318;27;70364;-36
2022/01/18 02:54:39;;;;;;;22.00;19.35;;;;;;;29.80;57.04;101276.13;5081284;27;66219;-36
2022/01/18 02:57:15;;;;;;;27.25;20.30;;;;;;;29.88;57.26;101282.38;5079875;27;70285;-36
2022/01/18 02:59:56;;;;;;;31.55;20.85;;;;;;;29.89;56.91;101278.63;5081176;27;65456;-36
2022/01/18 03:05:17;;;;;;;25.95;19.40;;;;;;;29.92;56.75;101278.22;5077134;27;65514;-35
2022/01/18 03:07:47;;;;;;;25.27;19.42;;;;;;;29.95;57.23;101272.41;5077741;27;69548;-36
2022/01/18 03:10:17;;;;;;;25.70;20.30;;;;;;;29.97;57.17;101275.75;5078019;27;65768;-36
2022/01/18 03:12:48;;;;;;;28.00;19.83;;;;;;;29.98;57.08;101277.44;5081389;27;70257;-36
2022/01/18 03:15:18;;;;;;;22.13;19.15;;;;;;;30.00;56.59;101276.16;5080842;27;66658;-36
2022/01/18 03:17:48;;;;;;;22.88;19.10;;;;;;;30.00;56.42;101272.63;5084799;27;69782;-36
2022/01/18 03:20:19;;;;;;;22.08;19.48;;;;;;;30.03;57.00;101269.50;5077402;27;66829;-36
2022/01/18 03:22:51;;;;;;;22.23;19.48;;;;;;;30.04;56.36;101265.78;5076136;27;69425;-35
2022/01/18 03:28:21;;;;;;;25.02;19.73;;;;;;;30.08;56.66;101256.19;5068186;27;70178;-36
2022/01/18 03:30:58;;;;;;;24.52;19.75;;;;;;;30.12;56.37;101260.19;5078392;27;65994;-36
2022/01/18 03:33:31;;;;;;;24.83;19.63;;;;;;;30.14;56.51;101247.25;5068226;27;69897;-36
2022/01/18 03:36:02;;;;;;;21.20;18.77;;;;;;;30.15;56.27;101246.22;5079873;27;66353;-36
2022/01/18 03:38:32;;;;;;;25.27;19.08;;;;;;;30.16;55.90;101244.34;5081469;27;70495;-36
2022/01/18 03:41:04;;;;;;;24.13;19.70;;;;;;;30.20;55.84;101254.56;5072233;27;66686;-36
2022/01/18 03:43:35;;;;;;;21.67;18.67;;;;;;;30.20;56.38;101237.47;5079771;27;70786;-36
2022/01/18 03:46:05;;;;;;;25.42;18.98;;;;;;;30.24;55.74;101239.59;5079905;27;66597;-36
2022/01/18 03:48:38;;;;;;;21.63;18.42;;;;;;;30.26;56.16;101245.66;5078680;27;70328;-36
2022/01/18 03:51:08;;;;;;;20.48;18.13;;;;;;;30.23;55.44;101229.84;5076822;27;66299;-36
2022/01/18 03:53:38;;;;;;;28.00;19.88;;;;;;;30.26;55.56;101229.41;5079794;27;69903;-36
2022/01/18 03:56:09;;;;;;;24.83;18.85;;;;;;;30.33;55.52;101236.69;5080702;27;66008;-35
2022/01/18 03:58:39;;;;;;;21.38;18.70;;;;;;;30.30;55.44;101229.00;5079987;27;69457;-35
2022/01/18 04:01:09;;;;;;;25.80;20.30;;;;;;;30.38;55.80;101239.59;5078664;27;65869;-35
2022/01/18 04:03:40;;;;;;;24.77;19.27;;;;;;;30.40;55.56;101226.72;5081090;27;70325;-35
2022/01/18 04:06:10;;;;;;;22.02;18.67;;;;;;;30.42;55.06;101219.19;5080239;27;66278;-35
2022/01/18 04:08:40;;;;;;;29.45;19.40;;;;;;;30.44;55.37;101223.34;5076978;27;70284;-36
2022/01/18 04:11:10;;;;;;;26.27;19.60;;;;;;;30.46;54.95;101220.44;5079590;27;66392;-37
2022/01/18 04:13:41;;;;;;;22.63;18.88;;;;;;;30.48;55.03;101210.25;5072684;28;70049;-36
2022/01/18 04:16:11;;;;;;;21.90;18.80;;;;;;;30.53;54.68;101210.44;5078015;27;66256;-37
2022/01/18 04:19:21;;;;;;;23.40;18.85;;;;;;;30.55;54.79;101219.19;5066393;27;70332;-35
2022/01/18 04:27:24;;;;;;;24.08;18.92;;;;;;;30.61;55.13;101196.69;5073795;28;66372;-36
2022/01/18 04:29:54;;;;;;;24.55;18.50;;;;;;;30.65;55.02;101197.09;5078665;27;70219;-36
2022/01/18 04:32:25;;;;;;;23.42;19.05;;;;;;;30.68;54.34;101196.69;5078251;27;65945;-36
2022/01/18 04:34:55;;;;;;;27.90;19.48;;;;;;;30.69;54.57;101193.75;5077468;27;69487;-35
2022/01/18 04:37:25;;;;;;;21.92;18.02;;;;;;;30.67;54.32;101179.59;5078401;27;66071;-37
2022/01/18 04:39:57;;;;;;;21.15;18.38;;;;;;;30.76;54.07;101176.66;5073524;27;70439;-36
2022/01/18 04:42:47;;;;;;;23.55;18.45;;;;;;;30.78;54.44;101180.81;5076456;27;65576;-36
2022/01/18 04:51:00;;;;;;;25.25;18.73;;;;;;;30.85;53.99;101175.41;5073026;27;69345;-36
2022/01/18 04:53:32;;;;;;;24.25;20.60;;;;;;;30.87;54.36;101167.88;5077568;27;66414;-36
2022/01/18 04:56:08;;;;;;;23.38;19.17;;;;;;;30.72;53.61;101135.63;5073331;27;70347;-36
2022/01/18 04:58:38;;;;;;;24.70;19.50;;;;;;;30.87;54.06;101148.94;5078839;27;65889;-36
2022/01/18 05:01:10;;;;;;;24.35;20.35;;;;;;;30.94;54.13;101144.34;5073815;27;69400;-35
2022/01/18 05:03:41;;;;;;;20.80;18.40;;;;;;;30.96;53.56;101134.13;5080487;27;66215;-36
2022/01/18 05:06:15;;;;;;;22.10;19.05;;;;;;;30.94;53.53;101125.38;5072895;27;69946;-36
2022/01/18 05:08:46;;;;;;;20.88;18.70;;;;;;;30.96;53.91;101117.88;5072017;27;67395;-35
2022/01/18 05:11:19;;;;;;;22.08;18.83;;;;;;;31.02;53.47;101116.19;5079633;27;69787;-36
2022/01/18 05:19:27;;;;;;;23.40;19.45;;;;;;;31.09;53.34;101098.00;5078982;27;65438;-36
2022/01/18 05:24:36;;;;;;;22.52;19.15;;;;;;;31.12;53.47;101101.13;5078170;27;66280;-38
2022/01/18 05:27:07;;;;;;;23.67;19.50;;;;;;;31.13;53.73;101086.50;5073545;27;69328;-42
2022/01/18 05:29:37;;;;;;;25.15;19.63;;;;;;;31.13;53.40;101075.66;5077553;28;66613;-36
2022/01/18 05:32:45;;;;;;;27.38;19.67;;;;;;;31.12;53.34;101060.47;5082767;27;69915;-37
2022/01/18 05:35:16;;;;;;;22.25;19.13;;;;;;;31.18;53.03;101058.78;5071869;28;66088;-41
2022/01/18 05:37:48;;;;;;;21.85;18.13;;;;;;;31.19;53.01;101041.44;5055325;28;70488;-36
2022/01/18 05:40:56;;;;;;;24.15;19.08;;;;;;;31.22;53.07;101038.31;5075621;27;65734;-36
2022/01/18 05:43:27;;;;;;;22.67;19.05;;;;;;;31.26;53.22;101034.13;5073119;27;69698;-35
2022/01/18 05:45:57;;;;;;;21.23;18.45;;;;;;;31.26;52.86;101030.56;5077911;27;66512;-35
2022/01/18 05:48:27;;;;;;;24.95;19.33;;;;;;;31.26;53.30;101017.00;5084204;27;70340;-35
2022/01/18 05:51:00;;;;;;;24.63;19.50;;;;;;;31.28;52.78;101013.03;5078172;27;66606;-36
2022/01/18 05:53:34;;;;;;;20.95;18.73;;;;;;;31.11;53.00;100980.22;5074751;27;70454;-35
2022/01/18 05:56:08;;;;;;;21.63;17.73;;;;;;;31.32;53.08;101005.31;5075069;28;66741;-41
2022/01/18 05:58:44;;;;;;;21.67;18.58;;;;;;;31.36;53.10;101010.06;5075384;27;70844;-35
2022/01/18 06:01:25;;;;;;;20.42;18.35;;;;;;;31.36;52.90;100995.69;5078376;27;66558;-37
2022/01/18 06:06:53;;;;;;;23.17;18.08;;;;;;;31.38;52.90;100985.47;5068945;27;66538;-36
2022/01/18 06:09:24;;;;;;;20.58;18.33;;;;;;;31.39;52.40;100976.28;5076058;28;70213;-35
2022/01/18 06:11:54;;;;;;;26.20;17.98;;;;;;;31.39;52.67;100976.28;5076429;27;65452;-36
2022/01/18 06:14:24;;;;;;;20.65;18.55;;;;;;;31.39;52.35;100966.25;5078883;27;70037;-37
2022/01/18 06:16:54;;;;;;;22.70;18.52;;;;;;;31.39;52.75;100949.19;5073868;27;66530;-37
2022/01/18 06:19:25;;;;;;;21.55;18.13;;;;;;;31.41;52.55;100952.50;5074657;27;69443;-35
2022/01/18 06:21:55;;;;;;;21.13;18.08;;;;;;;31.43;52.39;100949.59;5075103;27;66165;-36
2022/01/18 06:24:25;;;;;;;22.98;17.27;;;;;;;31.43;52.80;100950.41;5076558;27;69643;-36
2022/01/18 06:27:09;;;;;;;18.92;17.17;;;;;;;31.28;52.80;100920.06;5068345;28;65519;-35
2022/01/18 06:29:39;;;;;;;19.23;17.02;;;;;;;31.40;52.78;100940.00;5077887;27;70291;-35
2022/01/18 06:32:10;;;;;;;19.17;17.27;;;;;;;31.46;52.76;100933.69;5069241;28;66812;-37
2022/01/18 06:34:40;;;;;;;22.17;17.50;;;;;;;31.47;52.15;100929.91;5077155;27;69794;-37
2022/01/18 06:37:11;;;;;;;22.30;16.75;;;;;;;31.48;52.54;100922.59;5075860;27;65408;-42
2022/01/18 06:39:43;;;;;;;19.13;16.55;;;;;;;31.50;52.49;100915.91;5078089;27;70281;-37
2022/01/18 06:42:14;;;;;;;18.48;16.55;;;;;;;31.50;52.50;100909.66;5080822;27;66233;-37
2022/01/18 06:44:45;;;;;;;;;;;;;;;31.29;53.12;100905.47;5082252;27;70123;-36
2022/01/18 06:47:15;;;;;;;17.75;16.00;;;;;;;31.33;52.27;100874.16;5081858;27;66262;-36
2022/01/18 06:49:45;;;;;;;18.05;16.10;;;;;;;31.53;52.53;100907.31;5082527;27;70239;-41
2022/01/18 06:52:16;;;;;;;18.17;16.38;;;;;;;31.57;52.42;100908.56;5080412;27;66313;-36
2022/01/18 06:54:46;;;;;;;19.10;15.68;;;;;;;31.56;52.43;100901.44;5080150;27;70132;-35
2022/01/18 06:57:17;;;;;;;17.98;16.17;;;;;;;31.58;52.06;100888.50;5082801;27;66165;-37
2022/01/18 06:59:47;;;;;;;17.50;15.95;;;;;;;31.56;51.97;100873.50;5068824;27;69315;-36
2022/01/18 07:02:17;;;;;;;19.08;16.00;;;;;;;31.56;52.16;100873.50;5077496;27;66114;-36
2022/01/18 07:04:47;;;;;;;17.85;15.95;;;;;;;31.60;52.10;100870.13;5080775;27;70423;-36
2022/01/18 07:07:19;;;;;;;21.67;15.68;;;;;;;31.65;51.78;100874.03;5080568;27;66347;-36
2022/01/18 07:09:49;;;;;;;21.77;16.95;;;;;;;31.63;51.91;100862.63;5081281;27;70139;-35
2022/01/18 07:12:19;;;;;;;17.70;15.93;;;;;;;31.67;51.61;100870.06;5082300;27;66331;-37
2022/01/18 07:14:49;;;;;;;16.80;15.15;;;;;;;31.66;51.57;100856.75;5078906;27;69984;-36
2022/01/18 07:17:19;;;;;;;17.48;15.48;;;;;;;31.70;51.79;100852.50;5078391;27;66497;-36
2022/01/18 07:19:50;;;;;;;21.35;16.45;;;;;;;31.72;51.65;100851.22;5077785;27;69939;-36
2022/01/18 07:22:20;;;;;;;18.80;16.75;;;;;;;31.73;51.88;100857.47;5081014;27;65358;-36
2022/01/18 07:24:57;;;;;;;19.80;15.77;;;;;;;31.75;51.72;100847.22;5078877;27;70328;-37
2022/01/18 07:27:27;;;;;;;17.42;15.45;;;;;;;31.77;51.66;100853.25;5081060;27;64951;-35
2022/01/18 07:29:57;;;;;;;17.30;15.68;;;;;;;31.78;51.68;100850.31;5079833;27;70175;-37
2022/01/18 07:32:28;;;;;;;17.90;16.20;;;;;;;31.81;51.64;100844.44;5081277;27;66062;-37
2022/01/18 07:34:58;;;;;;;18.30;16.33;;;;;;;31.84;51.70;100843.16;5079931;27;69948;-37
2022/01/18 07:37:28;;;;;;;18.02;16.05;;;;;;;31.86;51.58;100845.66;5074965;27;66521;-37
2022/01/18 07:39:58;;;;;;;17.88;16.05;;;;;;;31.87;51.33;100836.44;5081656;27;70048;-38
2022/01/18 07:42:28;;;;;;;17.20;15.52;;;;;;;31.88;51.24;100838.94;5073798;27;66107;-36
2022/01/18 07:44:59;;;;;;;18.05;15.68;;;;;;;31.88;51.39;100828.09;5073360;27;70123;-42
2022/01/18 07:47:29;;;;;;;18.48;15.45;;;;;;;31.85;51.69;100822.31;5069715;28;66071;-36
2022/01/18 07:50:03;;;;;;;17.48;15.63;;;;;;;31.73;51.21;100795.09;5079343;27;69569;-35
2022/01/18 07:52:35;;;;;;;16.23;14.73;;;;;;;31.93;51.13;100825.56;5077330;27;66591;-43
2022/01/18 07:55:05;;;;;;;;;;;;;;;31.71;51.71;100817.03;5081626;27;70243;-43
2022/01/18 07:57:41;;;;;;;17.38;15.60;;;;;;;31.91;51.58;100815.94;5077798;27;66300;-35
2022/01/18 08:00:14;;;;;;;16.05;14.23;;;;;;;31.87;51.42;100796.56;5080050;27;70299;-36
2022/01/18 08:02:45;;;;;;;16.00;14.50;;;;;;;31.95;51.27;100801.72;5078730;27;66147;-36
2022/01/18 08:05:16;;;;;;;;;;;;;;;31.72;51.39;100807.84;5073480;28;69858;-36
2022/01/18 08:07:47;;;;;;;17.17;14.55;;;;;;;31.90;51.20;100792.56;5081001;27;66320;-35
2022/01/18 08:10:18;;;;;;;15.90;14.55;;;;;;;31.96;51.43;100803.38;5080157;27;70492;-36
2022/01/18 08:12:48;;;;;;;17.92;14.82;;;;;;;31.93;51.24;100793.00;5079182;27;66145;-36
2022/01/18 08:15:21;;;;;;;16.08;14.52;;;;;;;31.94;51.37;100789.22;5067293;27;70337;-35
2022/01/18 08:17:54;;;;;;;15.75;14.38;;;;;;;31.97;51.08;100790.66;5077265;27;65678;-37
2022/01/18 08:20:24;;;;;;;15.10;13.65;;;;;;;31.96;51.03;100792.53;5077642;27;69703;-36
2022/01/18 08:22:55;;;;;;;15.85;14.45;;;;;;;31.99;51.19;100796.69;5078569;27;66351;-36
2022/01/18 08:25:25;;;;;;;15.30;13.90;;;;;;;31.82;51.34;100767.44;5074069;27;69263;-35
2022/01/18 08:27:55;;;;;;;16.10;14.63;;;;;;;31.99;51.08;100797.50;5075346;27;66352;-35
2022/01/18 08:30:26;;;;;;;15.75;13.95;;;;;;;32.00;50.91;100799.16;5078437;27;70149;-35
2022/01/18 08:32:56;;;;;;;14.95;13.77;;;;;;;32.01;50.95;100795.41;5077919;27;66235;-36
2022/01/18 08:35:27;;;;;;;14.97;13.37;;;;;;;31.98;51.24;100785.00;5078810;27;69643;-35
2022/01/18 08:37:57;;;;;;;15.43;14.02;;;;;;;32.00;51.17;100793.72;5079149;27;65685;-36
2022/01/18 08:40:27;;;;;;;15.27;13.93;;;;;;;32.02;51.36;100791.59;5075252;27;70622;-36
2022/01/18 08:42:58;;;;;;;14.55;13.40;;;;;;;31.97;50.97;100777.06;5074342;27;66513;-36
2022/01/18 08:45:28;;;;;;;15.35;14.05;;;;;;;31.99;50.93;100783.94;5073793;27;69958;-36
2022/01/18 08:47:59;;;;;;;16.45;14.75;;;;;;;32.03;51.31;100787.00;5072462;27;66196;-36
2022/01/18 08:50:31;;;;;;;16.70;14.37;;;;;;;32.03;50.89;100793.25;5074995;27;70683;-36
2022/01/18 08:53:01;;;;;;;15.10;13.73;;;;;;;32.03;51.22;100792.44;5057750;28;66048;-36
2022/01/18 08:55:34;;;;;;;15.57;14.07;;;;;;;32.04;51.09;100789.50;5065772;27;71162;-36
2022/01/18 08:58:04;;;;;;;15.60;14.30;;;;;;;32.07;51.22;100795.50;5071215;27;65671;-37
2022/01/18 09:00:36;;;;;;;16.65;14.25;;;;;;;32.05;51.29;100791.16;5079420;27;70182;-37
2022/01/18 09:03:06;;;;;;;15.77;14.40;;;;;;;32.08;51.02;100789.84;5078958;27;66473;-36
2022/01/18 09:05:38;;;;;;;15.88;14.27;;;;;;;32.10;50.76;100797.78;5078181;27;70371;-36
2022/01/18 09:08:11;;;;;;;15.20;13.70;;;;;;;32.10;50.84;100792.34;5079823;27;66058;-36
2022/01/18 09:10:43;;;;;;;16.52;14.82;;;;;;;32.11;50.79;100799.44;5076362;27;70413;-36
2022/01/18 09:13:17;;;;;;;18.17;14.65;;;;;;;31.93;50.95;100760.44;5080297;27;66161;-36
2022/01/18 09:15:50;;;;;;;16.00;14.60;;;;;;;32.15;51.03;100803.31;5076377;27;69181;-36
2022/01/18 09:18:20;;;;;;;16.20;14.30;;;;;;;32.13;51.18;100803.56;5077784;27;66286;-36
2022/01/18 09:20:51;;;;;;;16.50;14.73;;;;;;;32.12;50.85;100795.66;5078746;27;70526;-37
2022/01/18 09:23:21;;;;;;;15.82;14.30;;;;;;;32.16;50.84;100813.13;5071659;27;66476;-36
2022/01/18 09:25:51;;;;;;;17.90;14.85;;;;;;;32.12;51.25;100811.94;5079686;27;70155;-36
2022/01/18 09:28:21;;;;;;;16.23;14.68;;;;;;;32.14;51.27;100809.81;5082411;27;66255;-36
2022/01/18 09:30:51;;;;;;;14.30;13.18;;;;;;;32.17;51.23;100809.34;5077537;27;69634;-37
2022/01/18 09:33:22;;;;;;;16.23;14.20;;;;;;;32.18;51.37;100819.13;5074310;27;66523;-36
2022/01/18 09:35:52;;;;;;;17.00;13.55;;;;;;;32.15;51.21;100817.75;5077218;27;70029;-36
2022/01/18 09:38:22;;;;;;;16.40;14.02;;;;;;;32.18;51.48;100822.72;5077448;27;66424;-36
2022/01/18 09:40:53;;;;;;;16.70;13.60;;;;;;;32.16;51.59;100821.28;5079159;27;70658;-36
2022/01/18 09:43:23;;;;;;;15.82;13.27;;;;;;;32.16;51.59;100824.81;5079494;27;66184;-36
2022/01/18 09:45:57;;;;;;;19.07;12.97;;;;;;;31.82;51.76;100772.88;5076529;27;68672;-36
2022/01/18 09:48:27;;;;;;;15.68;13.52;;;;;;;32.19;51.75;100828.97;5079684;27;65578;-36
2022/01/18 09:51:17;;;;;;;14.82;12.77;;;;;;;32.18;52.04;100838.13;5075177;27;69677;-37
2022/01/18 09:54:01;;;;;;;14.88;12.63;;;;;;;32.18;52.03;100835.41;5076087;27;66456;-38
2022/01/18 09:56:34;;;;;;;13.75;12.32;;;;;;;32.18;52.08;100844.41;5077649;27;69241;-35
2022/01/18 09:59:06;;;;;;;13.90;12.60;;;;;;;32.18;52.25;100843.56;5077012;27;66124;-36
2022/01/18 10:01:37;;;;;;;16.48;12.82;;;;;;;32.18;52.34;100854.41;5071702;27;69493;-34
2022/01/18 10:04:20;;;;;;;14.70;12.18;;;;;;;32.18;52.15;100858.00;5075414;27;66355;-36
2022/01/18 10:06:58;;;;;;;16.92;12.90;;;;;;;32.07;52.18;100836.22;5077077;27;70169;-36
2022/01/18 10:09:29;;;;;;;14.18;12.00;;;;;;;32.15;52.47;100860.31;5077006;27;65788;-35
2022/01/18 10:12:12;;;;;;;16.85;11.55;;;;;;;31.96;52.22;100830.53;5072441;27;69718;-35
2022/01/18 10:14:54;;;;;;;18.88;12.35;;;;;;;32.14;52.55;100864.09;5076340;27;65415;-35
2022/01/18 10:17:37;;;;;;;16.55;11.68;;;;;;;32.11;52.30;100853.69;5078126;28;71014;-36
2022/01/18 10:20:18;;;;;;;13.88;12.10;;;;;;;32.13;52.42;100857.03;5073355;27;65826;-36
2022/01/18 10:22:49;;;;;;;13.38;12.02;;;;;;;32.13;52.38;100857.03;5082615;27;70324;-36
2022/01/18 10:25:22;;;;;;;13.80;12.38;;;;;;;32.11;52.21;100864.56;5088675;27;65619;-37
2022/01/18 10:27:54;;;;;;;15.65;12.30;;;;;;;32.10;52.37;100862.91;5079095;27;70684;-36
2022/01/18 10:30:38;;;;;;;16.48;12.10;;;;;;;32.09;52.32;100862.06;5075070;27;66065;-37
2022/01/18 10:33:15;;;;;;;14.82;11.73;;;;;;;31.89;52.61;100828.91;5080071;27;70848;-37
2022/01/18 10:36:11;;;;;;;20.52;12.68;;;;;;;32.02;52.92;100867.59;5080104;27;65434;-36
2022/01/18 10:38:47;;;;;;;19.88;12.48;;;;;;;31.91;52.71;100837.66;5079148;27;70543;-36
2022/01/18 10:41:34;;;;;;;21.95;12.40;;;;;;;32.09;53.45;100866.66;5049969;28;66431;-37
2022/01/18 10:44:30;;;;;;;40.70;13.65;;;;;;;32.07;54.07;100864.19;5054177;27;70079;-38
2022/01/18 10:47:00;;;;;;;34.95;13.57;;;;;;;32.08;54.58;100862.31;5081612;27;66477;-36
2022/01/18 10:49:39;;;;;;;36.38;14.10;;;;;;;32.07;54.22;100857.91;5080071;27;69629;-37
2022/01/18 10:52:20;;;;;;;45.70;13.80;;;;;;;32.10;54.39;100863.72;5074043;27;65134;-36
2022/01/18 10:54:56;;;;;;;33.15;13.52;;;;;;;32.07;54.87;100864.19;5074101;27;69482;-36
2022/01/18 10:57:30;;;;;;;45.58;13.30;;;;;;;32.12;54.73;100877.06;5069851;27;65686;-35
2022/01/18 11:00:21;;;;;;;25.85;13.00;;;;;;;31.73;55.57;100831.22;5074111;27;69855;-36
2022/01/18 11:02:53;;;;;;;26.50;14.80;;;;;;;32.07;54.70;100875.03;5077467;27;66438;-37
2022/01/18 11:05:33;;;;;;;31.90;14.13;;;;;;;31.91;55.42;100851.22;5075672;27;70210;-37
2022/01/18 11:08:05;;;;;;;31.38;14.68;;;;;;;32.10;54.80;100895.47;5080468;27;65450;-36
2022/01/18 11:10:41;;;;;;;30.25;14.07;;;;;;;32.09;55.22;100896.50;5076390;27;70052;-36
2022/01/18 11:13:34;;;;;;;23.35;13.68;;;;;;;32.07;54.99;100896.75;5078911;27;65588;-36
2022/01/18 11:16:13;;;;;;;26.80;13.40;;;;;;;31.98;55.17;100881.81;5079570;27;70108;-37
2022/01/18 11:18:46;;;;;;;40.97;13.38;;;;;;;32.08;55.70;100903.81;5062860;28;66149;-36
2022/01/18 11:21:19;;;;;;;26.85;12.20;;;;;;;32.05;55.37;100898.84;5081022;27;69693;-35
2022/01/18 11:23:52;;;;;;;22.40;12.88;;;;;;;31.85;55.58;100869.22;5079349;27;66304;-37
2022/01/18 11:26:24;;;;;;;20.65;12.63;;;;;;;32.03;55.21;100906.38;5080332;27;69606;-36
2022/01/18 11:28:56;;;;;;;33.65;12.07;;;;;;;31.97;55.42;100891.03;5080943;27;66132;-35
2022/01/18 11:31:26;;;;;;;24.65;12.65;;;;;;;31.98;55.24;100890.81;5084289;27;70426;-37
2022/01/18 11:33:59;;;;;;;16.02;11.40;;;;;;;32.01;55.42;100898.50;5081282;27;65864;-36
2022/01/18 11:36:38;;;;;;;21.38;12.50;;;;;;;32.00;54.89;100896.00;5087374;27;69165;-36
2022/01/18 11:39:11;;;;;;;24.85;13.63;;;;;;;31.96;54.68;100906.47;5081104;27;66460;-37
2022/01/18 11:41:42;;;;;;;30.92;14.55;;;;;;;31.92;54.97;100907.97;5077788;27;69241;-36
2022/01/18 11:44:19;;;;;;;28.80;14.27;;;;;;;31.92;54.70;100915.28;5080553;27;65499;-37
2022/01/18 11:46:52;;;;;;;27.83;13.75;;;;;;;31.92;54.93;100915.28;5076786;27;70488;-36
2022/01/18 11:49:27;;;;;;;24.52;13.63;;;;;;;31.73;54.97;100890.00;5073416;27;66428;-36
2022/01/18 11:52:09;;;;;;;34.17;17.85;;;;;;;31.81;55.42;100909.53;5078181;27;70089;-38
2022/01/18 11:54:56;;;;;;;48.45;25.30;;;;;;;31.88;55.29;100920.31;5078558;27;66595;-37
2022/01/18 11:57:27;;;;;;;41.63;27.35;;;;;;;31.86;54.90;100933.28;5076623;27;69787;-36
2022/01/18 12:00:08;;;;;;;52.30;26.67;;;;;;;31.82;54.88;100926.66;5079499;27;66393;-37
2022/01/18 12:02:44;;;;;;;35.30;22.35;;;;;;;31.82;55.02;100932.91;5076168;27;70141;-37
2022/01/18 12:05:20;;;;;;;53.30;25.10;;;;;;;31.79;55.32;100927.09;5073499;27;65603;-37
2022/01/18 12:08:02;;;;;;;47.00;22.10;;;;;;;31.78;55.47;100925.44;5077779;27;69463;-36
2022/01/18 12:10:42;;;;;;;46.72;21.13;;;;;;;31.83;55.15;100926.41;5061525;28;65929;-37
2022/01/18 12:13:34;;;;;;;30.77;18.88;;;;;;;31.76;55.67;100931.09;5075411;27;69552;-37
2022/01/18 12:16:18;;;;;;;32.53;18.42;;;;;;;31.79;55.10;100927.09;5039723;27;65328;-37
2022/01/18 12:18:59;;;;;;;22.23;15.02;;;;;;;31.56;55.25;100885.19;5060050;27;70095;-36
2022/01/18 12:21:32;;;;;;;38.05;16.27;;;;;;;31.76;55.42;100927.53;5042104;27;66408;-37
2022/01/18 12:24:18;;;;;;;33.90;15.38;;;;;;;31.71;55.63;100930.94;5055289;28;69993;-37
2022/01/18 12:26:59;;;;;;;27.52;14.82;;;;;;;31.74;55.41;100940.50;5066288;27;65829;-37
2022/01/18 12:34:48;;;;;;;34.00;15.70;;;;;;;31.72;55.82;100959.72;5051307;27;70291;-38
2022/01/18 12:37:24;;;;;;;41.97;15.65;;;;;;;31.71;55.53;100951.81;5036813;28;66250;-37
2022/01/18 12:39:55;;;;;;;33.75;14.73;;;;;;;31.72;55.58;100970.56;5069000;27;69292;-38
2022/01/18 12:45:20;;;;;;;26.90;14.38;;;;;;;31.70;55.54;100963.69;5053477;27;70025;-38
2022/01/18 12:48:01;;;;;;;31.27;14.20;;;;;;;31.67;55.87;100977.69;5018633;28;66590;-36
2022/01/18 12:50:45;;;;;;;22.80;12.60;;;;;;;31.64;55.94;100973.56;5068324;27;69379;-37
2022/01/18 12:53:28;;;;;;;33.80;14.13;;;;;;;31.64;56.07;100983.56;5035289;28;67055;-38